sensor_id;sensor_type;location;lat;lon;timestamp;pressure;altitude;pressure_sealevel;temperature;humidity
78073;BME280;67281;48.770;11.440;2023-04-03T00:01:47;97868.03;;;15.95;44.40
78073;BME280;67281;48.770;11.440;2023-04-03T00:04:14;97863.34;;;15.98;44.64
78073;BME280;67281;48.770;11.440;2023-04-03T00:06:42;97861.66;;;15.97;44.07
78073;BME280;67281;48.770;11.440;2023-04-03T00:09:09;97869.72;;;15.96;44.63
78073;BME280;67281;48.770;11.440;2023-04-03T00:11:36;97866.25;;;15.95;44.62
78073;BME280;67281;48.770;11.440;2023-04-03T00:14:03;97864.69;;;15.93;44.84
78073;BME280;67281;48.770;11.440;2023-04-03T00:16:31;97869.97;;;15.93;44.27
78073;BME280;67281;48.770;11.440;2023-04-03T00:18:58;97871.66;;;15.94;44.40
78073;BME280;67281;48.770;11.440;2023-04-03T00:21:34;97865.66;;;15.92;44.08
78073;BME280;67281;48.770;11.440;2023-04-03T00:24:02;97863.97;;;15.91;44.46
78073;BME280;67281;48.770;11.440;2023-04-03T00:26:29;97864.09;;;15.89;44.34
78073;BME280;67281;48.770;11.440;2023-04-03T00:28:57;97864.22;;;15.88;43.96
78073;BME280;67281;48.770;11.440;2023-04-03T00:31:24;97864.94;;;15.90;44.42
78073;BME280;67281;48.770;11.440;2023-04-03T00:33:51;97863.25;;;15.89;44.15
78073;BME280;67281;48.770;11.440;2023-04-03T00:36:22;97860.75;;;15.87;43.82
78073;BME280;67281;48.770;11.440;2023-04-03T00:38:53;97866.88;;;15.88;44.72
78073;BME280;67281;48.770;11.440;2023-04-03T00:41:24;97863.38;;;15.87;44.30
78073;BME280;67281;48.770;11.440;2023-04-03T00:43:58;97863.50;;;15.86;44.28
78073;BME280;67281;48.770;11.440;2023-04-03T00:46:37;97866.03;;;15.87;44.59
78073;BME280;67281;48.770;11.440;2023-04-03T00:49:11;97865.19;;;15.87;44.51
78073;BME280;67281;48.770;11.440;2023-04-03T00:51:47;97867.84;;;15.87;44.56
78073;BME280;67281;48.770;11.440;2023-04-03T00:54:20;97864.34;;;15.86;43.93
78073;BME280;67281;48.770;11.440;2023-04-03T00:56:49;97857.50;;;15.84;44.25
78073;BME280;67281;48.770;11.440;2023-04-03T00:59:30;97861.81;;;15.85;44.33
78073;BME280;67281;48.770;11.440;2023-04-03T01:02:01;97863.50;;;15.86;44.36
78073;BME280;67281;48.770;11.440;2023-04-03T01:04:36;97856.78;;;15.82;44.18
78073;BME280;67281;48.770;11.440;2023-04-03T01:07:09;97864.59;;;15.83;44.60
78073;BME280;67281;48.770;11.440;2023-04-03T01:09:38;97860.53;;;15.79;44.57
78073;BME280;67281;48.770;11.440;2023-04-03T01:12:28;97861.25;;;15.81;44.12
78073;BME280;67281;48.770;11.440;2023-04-03T01:15:00;97862.91;;;15.82;44.27
78073;BME280;67281;48.770;11.440;2023-04-03T01:17:29;97863.03;;;15.81;44.22
78073;BME280;67281;48.770;11.440;2023-04-03T01:25:57;97876.25;;;15.81;44.42
78073;BME280;67281;48.770;11.440;2023-04-03T01:28:37;97886.81;;;15.81;44.24
78073;BME280;67281;48.770;11.440;2023-04-03T01:33:49;97881.91;;;15.76;43.91
78073;BME280;67281;48.770;11.440;2023-04-03T01:36:23;97883.59;;;15.77;44.30
78073;BME280;67281;48.770;11.440;2023-04-03T01:38:58;97880.94;;;15.77;44.00
78073;BME280;67281;48.770;11.440;2023-04-03T01:41:35;97878.44;;;15.75;44.50
78073;BME280;67281;48.770;11.440;2023-04-03T01:44:03;97886.47;;;15.74;44.23
78073;BME280;67281;48.770;11.440;2023-04-03T01:46:34;97890.69;;;15.76;44.34
78073;BME280;67281;48.770;11.440;2023-04-03T01:49:03;97884.69;;;15.74;43.92
78073;BME280;67281;48.770;11.440;2023-04-03T01:51:33;97884.69;;;15.74;44.07
78073;BME280;67281;48.770;11.440;2023-04-03T01:54:00;97881.31;;;15.72;44.72
78073;BME280;67281;48.770;11.440;2023-04-03T01:56:28;97884.09;;;15.71;44.04
78073;BME280;67281;48.770;11.440;2023-04-03T01:58:55;97886.13;;;15.67;44.44
78073;BME280;67281;48.770;11.440;2023-04-03T02:01:22;97879.03;;;15.68;44.05
78073;BME280;67281;48.770;11.440;2023-04-03T02:03:52;97881.69;;;15.68;43.79
78073;BME280;67281;48.770;11.440;2023-04-03T02:06:23;97884.09;;;15.71;43.68
78073;BME280;67281;48.770;11.440;2023-04-03T02:08:53;97880.84;;;15.67;44.12
78073;BME280;67281;48.770;11.440;2023-04-03T02:11:20;97868.34;;;15.69;43.78
78073;BME280;67281;48.770;11.440;2023-04-03T02:13:47;97879.75;;;15.70;44.10
78073;BME280;67281;48.770;11.440;2023-04-03T02:16:14;97883.50;;;15.67;44.10
78073;BME280;67281;48.770;11.440;2023-04-03T02:18:42;97879.16;;;15.66;44.14
78073;BME280;67281;48.770;11.440;2023-04-03T02:21:09;97885.28;;;15.67;44.02
78073;BME280;67281;48.770;11.440;2023-04-03T02:23:39;97883.50;;;15.67;43.88
78073;BME280;67281;48.770;11.440;2023-04-03T02:26:09;97887.81;;;15.68;43.95
78073;BME280;67281;48.770;11.440;2023-04-03T02:28:36;97886.25;;;15.66;44.38
78073;BME280;67281;48.770;11.440;2023-04-03T02:31:05;97889.03;;;15.64;44.42
78073;BME280;67281;48.770;11.440;2023-04-03T02:33:33;97878.22;;;15.67;44.00
78073;BME280;67281;48.770;11.440;2023-04-03T02:36:05;97881.81;;;15.66;43.60
78073;BME280;67281;48.770;11.440;2023-04-03T02:38:33;97873.41;;;15.61;44.45
78073;BME280;67281;48.770;11.440;2023-04-03T02:41:03;97881.94;;;15.65;43.67
78073;BME280;67281;48.770;11.440;2023-04-03T02:43:30;97879.53;;;15.62;43.97
78073;BME280;67281;48.770;11.440;2023-04-03T02:45:57;97884.56;;;15.65;43.66
78073;BME280;67281;48.770;11.440;2023-04-03T02:48:25;97879.66;;;15.60;43.95
78073;BME280;67281;48.770;11.440;2023-04-03T02:50:52;97888.31;;;15.62;44.26
78073;BME280;67281;48.770;11.440;2023-04-03T02:53:19;97879.66;;;15.60;44.19
78073;BME280;67281;48.770;11.440;2023-04-03T02:55:46;97883.28;;;15.59;43.65
78073;BME280;67281;48.770;11.440;2023-04-03T02:58:13;97887.75;;;15.59;43.71
78073;BME280;67281;48.770;11.440;2023-04-03T03:00:41;97888.69;;;15.58;44.02
78073;BME280;67281;48.770;11.440;2023-04-03T03:03:08;97882.47;;;15.59;43.45
78073;BME280;67281;48.770;11.440;2023-04-03T03:05:35;97889.53;;;15.58;43.98
78073;BME280;67281;48.770;11.440;2023-04-03T03:08:02;97888.56;;;15.59;44.10
78073;BME280;67281;48.770;11.440;2023-04-03T03:10:29;97887.84;;;15.57;43.96
78073;BME280;67281;48.770;11.440;2023-04-03T03:12:57;97881.75;;;15.57;44.34
78073;BME280;67281;48.770;11.440;2023-04-03T03:15:24;97881.81;;;15.55;43.77
78073;BME280;67281;48.770;11.440;2023-04-03T03:17:51;97879.31;;;15.54;44.00
78073;BME280;67281;48.770;11.440;2023-04-03T03:20:18;97876.66;;;15.54;44.01
78073;BME280;67281;48.770;11.440;2023-04-03T03:22:45;97881.94;;;15.54;44.07
78073;BME280;67281;48.770;11.440;2023-04-03T03:25:11;97879.31;;;15.54;43.57
78073;BME280;67281;48.770;11.440;2023-04-03T03:27:39;97881.09;;;15.53;43.94
78073;BME280;67281;48.770;11.440;2023-04-03T03:30:07;97881.94;;;15.54;43.67
78073;BME280;67281;48.770;11.440;2023-04-03T03:32:34;97877.63;;;15.53;43.74
78073;BME280;67281;48.770;11.440;2023-04-03T03:35:01;97880.41;;;15.51;43.73
78073;BME280;67281;48.770;11.440;2023-04-03T03:37:28;97877.75;;;15.51;44.17
78073;BME280;67281;48.770;11.440;2023-04-03T03:39:55;97879.44;;;15.52;43.73
78073;BME280;67281;48.770;11.440;2023-04-03T03:42:22;97879.69;;;15.49;43.91
78073;BME280;67281;48.770;11.440;2023-04-03T03:44:49;97882.31;;;15.49;44.19
78073;BME280;67281;48.770;11.440;2023-04-03T03:47:16;97880.41;;;15.51;44.27
78073;BME280;67281;48.770;11.440;2023-04-03T03:49:43;97874.41;;;15.49;44.19
78073;BME280;67281;48.770;11.440;2023-04-03T03:52:10;97879.91;;;15.46;44.22
78073;BME280;67281;48.770;11.440;2023-04-03T03:54:37;97877.88;;;15.50;44.22
78073;BME280;67281;48.770;11.440;2023-04-03T03:57:04;97884.00;;;15.50;44.19
78073;BME280;67281;48.770;11.440;2023-04-03T03:59:31;97873.69;;;15.47;43.88
78073;BME280;67281;48.770;11.440;2023-04-03T04:01:58;97878.97;;;15.47;43.64
78073;BME280;67281;48.770;11.440;2023-04-03T04:04:25;97879.78;;;15.48;44.13
78073;BME280;67281;48.770;11.440;2023-04-03T04:06:52;97879.06;;;15.45;44.30
78073;BME280;67281;48.770;11.440;2023-04-03T04:09:19;97874.63;;;15.46;44.02
78073;BME280;67281;48.770;11.440;2023-04-03T04:11:46;97874.03;;;15.42;43.96
78073;BME280;67281;48.770;11.440;2023-04-03T04:14:13;97889.03;;;15.42;44.03
78073;BME280;67281;48.770;11.440;2023-04-03T04:16:40;97888.81;;;15.45;43.53
78073;BME280;67281;48.770;11.440;2023-04-03T04:19:07;97889.03;;;15.42;43.57
78073;BME280;67281;48.770;11.440;2023-04-03T04:21:34;97890.72;;;15.43;44.01
78073;BME280;67281;48.770;11.440;2023-04-03T04:24:01;97896.13;;;15.41;43.82
78073;BME280;67281;48.770;11.440;2023-04-03T04:26:28;97892.88;;;15.38;44.21
78073;BME280;67281;48.770;11.440;2023-04-03T04:28:56;97891.09;;;15.38;43.76
78073;BME280;67281;48.770;11.440;2023-04-03T04:31:23;97893.84;;;15.37;43.84
78073;BME280;67281;48.770;11.440;2023-04-03T04:33:50;97895.41;;;15.39;43.61
78073;BME280;67281;48.770;11.440;2023-04-03T04:36:17;97897.22;;;15.39;43.95
78073;BME280;67281;48.770;11.440;2023-04-03T04:38:44;97899.97;;;15.37;43.90
78073;BME280;67281;48.770;11.440;2023-04-03T04:41:11;97906.09;;;15.38;44.01
78073;BME280;67281;48.770;11.440;2023-04-03T04:43:38;97899.97;;;15.37;44.01
78073;BME280;67281;48.770;11.440;2023-04-03T04:46:09;97899.25;;;15.35;43.62
78073;BME280;67281;48.770;11.440;2023-04-03T04:48:38;97900.34;;;15.33;43.54
78073;BME280;67281;48.770;11.440;2023-04-03T04:51:06;97899.63;;;15.31;43.82
78073;BME280;67281;48.770;11.440;2023-04-03T04:53:33;97894.34;;;15.31;43.47
78073;BME280;67281;48.770;11.440;2023-04-03T04:56:00;97904.66;;;15.34;43.76
78073;BME280;67281;48.770;11.440;2023-04-03T04:58:27;97899.38;;;15.34;44.05
78073;BME280;67281;48.770;11.440;2023-04-03T05:01:05;97908.25;;;15.33;43.85
78073;BME280;67281;48.770;11.440;2023-04-03T05:03:33;97906.56;;;15.32;43.77
78073;BME280;67281;48.770;11.440;2023-04-03T05:06:00;97900.44;;;15.31;43.72
78073;BME280;67281;48.770;11.440;2023-04-03T05:08:27;97899.63;;;15.31;44.02
78073;BME280;67281;48.770;11.440;2023-04-03T05:10:54;97911.00;;;15.31;43.46
78073;BME280;67281;48.770;11.440;2023-04-03T05:13:22;97914.72;;;15.29;43.86
78073;BME280;67281;48.770;11.440;2023-04-03T05:15:49;97909.47;;;15.29;43.53
78073;BME280;67281;48.770;11.440;2023-04-03T05:18:16;97914.00;;;15.27;43.98
78073;BME280;67281;48.770;11.440;2023-04-03T05:20:42;97919.28;;;15.27;43.72
78073;BME280;67281;48.770;11.440;2023-04-03T05:23:10;97918.56;;;15.25;43.92
78073;BME280;67281;48.770;11.440;2023-04-03T05:25:38;97919.41;;;15.25;44.01
78073;BME280;67281;48.770;11.440;2023-04-03T05:28:06;97923.75;;;15.26;43.42
78073;BME280;67281;48.770;11.440;2023-04-03T05:30:33;97918.56;;;15.25;43.61
78073;BME280;67281;48.770;11.440;2023-04-03T05:33:00;97923.84;;;15.25;43.64
78073;BME280;67281;48.770;11.440;2023-04-03T05:35:27;97923.84;;;15.25;43.50
78073;BME280;67281;48.770;11.440;2023-04-03T05:37:54;97926.38;;;15.26;43.57
78073;BME280;67281;48.770;11.440;2023-04-03T05:40:22;97926.50;;;15.25;43.41
78073;BME280;67281;48.770;11.440;2023-04-03T05:42:48;97926.50;;;15.25;43.77
78073;BME280;67281;48.770;11.440;2023-04-03T05:45:16;97921.34;;;15.23;43.89
78073;BME280;67281;48.770;11.440;2023-04-03T05:47:43;97923.84;;;15.25;43.62
78073;BME280;67281;48.770;11.440;2023-04-03T05:50:10;97928.28;;;15.24;43.43
78073;BME280;67281;48.770;11.440;2023-04-03T05:52:40;97923.84;;;15.25;43.27
78073;BME280;67281;48.770;11.440;2023-04-03T05:55:09;97928.41;;;15.23;43.84
78073;BME280;67281;48.770;11.440;2023-04-03T05:57:36;97929.25;;;15.23;43.25
78073;BME280;67281;48.770;11.440;2023-04-03T06:00:05;97930.09;;;15.24;43.30
78073;BME280;67281;48.770;11.440;2023-04-03T06:02:33;97919.78;;;15.21;43.44
78073;BME280;67281;48.770;11.440;2023-04-03T06:05:00;97929.25;;;15.23;43.24
78073;BME280;67281;48.770;11.440;2023-04-03T06:07:27;97926.72;;;15.22;43.30
78073;BME280;67281;48.770;11.440;2023-04-03T06:09:56;97933.69;;;15.23;43.88
78073;BME280;67281;48.770;11.440;2023-04-03T06:12:23;97935.38;;;15.24;43.98
78073;BME280;67281;48.770;11.440;2023-04-03T06:14:51;97930.09;;;15.24;43.38
78073;BME280;67281;48.770;11.440;2023-04-03T06:17:18;97930.81;;;15.26;43.13
78073;BME280;67281;48.770;11.440;2023-04-03T06:19:45;97934.66;;;15.22;43.62
78073;BME280;67281;48.770;11.440;2023-04-03T06:22:13;97931.06;;;15.23;43.44
78073;BME280;67281;48.770;11.440;2023-04-03T06:24:41;97929.38;;;15.22;43.52
78073;BME280;67281;48.770;11.440;2023-04-03T06:27:09;97938.97;;;15.23;43.41
78073;BME280;67281;48.770;11.440;2023-04-03T06:29:40;97943.28;;;15.24;43.17
78073;BME280;67281;48.770;11.440;2023-04-03T06:32:07;97942.47;;;15.23;43.44
78073;BME280;67281;48.770;11.440;2023-04-03T06:34:36;97947.63;;;15.25;42.94
78073;BME280;67281;48.770;11.440;2023-04-03T06:37:04;97945.94;;;15.24;43.54
78073;BME280;67281;48.770;11.440;2023-04-03T06:39:31;97945.94;;;15.24;43.08
78073;BME280;67281;48.770;11.440;2023-04-03T06:41:59;97946.78;;;15.24;43.06
78073;BME280;67281;48.770;11.440;2023-04-03T06:44:26;97950.38;;;15.23;43.00
78073;BME280;67281;48.770;11.440;2023-04-03T06:46:53;97947.50;;;15.26;43.49
78073;BME280;67281;48.770;11.440;2023-04-03T06:49:21;97947.63;;;15.25;43.17
78073;BME280;67281;48.770;11.440;2023-04-03T06:51:48;97949.28;;;15.26;42.94
78073;BME280;67281;48.770;11.440;2023-04-03T06:54:15;97952.78;;;15.26;43.28
78073;BME280;67281;48.770;11.440;2023-04-03T06:56:42;97962.38;;;15.27;43.37
78073;BME280;67281;48.770;11.440;2023-04-03T06:59:11;97962.16;;;15.30;43.08
78073;BME280;67281;48.770;11.440;2023-04-03T07:01:41;97963.94;;;15.30;43.33
78073;BME280;67281;48.770;11.440;2023-04-03T07:04:09;97964.78;;;15.30;42.86
78073;BME280;67281;48.770;11.440;2023-04-03T07:06:36;97967.41;;;15.30;43.17
78073;BME280;67281;48.770;11.440;2023-04-03T07:09:05;97966.59;;;15.30;42.80
78073;BME280;67281;48.770;11.440;2023-04-03T07:11:35;97967.41;;;15.30;43.24
78073;BME280;67281;48.770;11.440;2023-04-03T07:14:03;97972.69;;;15.30;43.23
78073;BME280;67281;48.770;11.440;2023-04-03T07:16:30;97978.81;;;15.31;42.68
78073;BME280;67281;48.770;11.440;2023-04-03T07:18:58;97982.19;;;15.33;43.14
78073;BME280;67281;48.770;11.440;2023-04-03T07:21:25;97974.28;;;15.33;43.04
78073;BME280;67281;48.770;11.440;2023-04-03T07:23:52;97970.56;;;15.35;42.92
78073;BME280;67281;48.770;11.440;2023-04-03T07:26:19;97978.59;;;15.34;43.17
78073;BME280;67281;48.770;11.440;2023-04-03T07:28:48;97981.09;;;15.35;42.90
78073;BME280;67281;48.770;11.440;2023-04-03T07:31:16;97984.72;;;15.34;42.86
78073;BME280;67281;48.770;11.440;2023-04-03T07:33:45;97980.28;;;15.35;42.45
78073;BME280;67281;48.770;11.440;2023-04-03T07:36:17;97990.84;;;15.35;42.87
78073;BME280;67281;48.770;11.440;2023-04-03T07:38:44;97988.06;;;15.36;42.60
78073;BME280;67281;48.770;11.440;2023-04-03T07:41:14;97992.41;;;15.37;42.71
78073;BME280;67281;48.770;11.440;2023-04-03T07:43:42;97994.44;;;15.34;43.12
78073;BME280;67281;48.770;11.440;2023-04-03T07:46:09;97991.44;;;15.38;42.64
78073;BME280;67281;48.770;11.440;2023-04-03T07:48:36;97998.63;;;15.36;42.92
78073;BME280;67281;48.770;11.440;2023-04-03T07:51:04;97994.19;;;15.37;42.73
78073;BME280;67281;48.770;11.440;2023-04-03T07:53:34;98004.53;;;15.40;42.92
78073;BME280;67281;48.770;11.440;2023-04-03T07:56:01;98005.13;;;15.43;42.83
78073;BME280;67281;48.770;11.440;2023-04-03T07:58:29;98000.31;;;15.49;42.24
78073;BME280;67281;48.770;11.440;2023-04-03T08:01:00;97999.38;;;15.50;42.61
78073;BME280;67281;48.770;11.440;2023-04-03T08:03:27;98000.31;;;15.49;42.61
78073;BME280;67281;48.770;11.440;2023-04-03T08:05:54;97999.72;;;15.45;42.64
78073;BME280;67281;48.770;11.440;2023-04-03T08:08:22;97999.72;;;15.45;42.67
78073;BME280;67281;48.770;11.440;2023-04-03T08:10:53;98003.09;;;15.47;42.51
78073;BME280;67281;48.770;11.440;2023-04-03T08:13:21;98004.88;;;15.47;42.42
78073;BME280;67281;48.770;11.440;2023-04-03T08:15:48;97996.84;;;15.48;42.81
78073;BME280;67281;48.770;11.440;2023-04-03T08:18:16;98003.81;;;15.49;42.74
78073;BME280;67281;48.770;11.440;2023-04-03T08:20:44;98002.84;;;15.50;42.82
78073;BME280;67281;48.770;11.440;2023-04-03T08:23:11;98008.03;;;15.52;42.57
78073;BME280;67281;48.770;11.440;2023-04-03T08:25:44;98004.66;;;15.50;42.26
78073;BME280;67281;48.770;11.440;2023-04-03T08:28:12;98003.34;;;15.55;42.50
78073;BME280;67281;48.770;11.440;2023-04-03T08:30:40;98009.56;;;15.54;42.58
78073;BME280;67281;48.770;11.440;2023-04-03T08:33:08;98009.69;;;15.53;42.98
78073;BME280;67281;48.770;11.440;2023-04-03T08:35:39;98005.03;;;15.56;42.33
78073;BME280;67281;48.770;11.440;2023-04-03T08:38:09;98009.47;;;15.56;42.56
78073;BME280;67281;48.770;11.440;2023-04-03T08:40:40;98013.69;;;15.58;42.67
78073;BME280;67281;48.770;11.440;2023-04-03T08:45:53;98018.03;;;15.59;42.55
78073;BME280;67281;48.770;11.440;2023-04-03T08:48:27;98017.28;;;15.57;42.52
78073;BME280;67281;48.770;11.440;2023-04-03T08:50:59;98023.03;;;15.62;42.05
78073;BME280;67281;48.770;11.440;2023-04-03T08:53:32;98015.38;;;15.59;42.07
78073;BME280;67281;48.770;11.440;2023-04-03T08:56:07;98019.56;;;15.62;42.72
78073;BME280;67281;48.770;11.440;2023-04-03T08:58:50;98022.69;;;15.67;42.73
78073;BME280;67281;48.770;11.440;2023-04-03T09:03:54;98015.59;;;15.67;42.56
78073;BME280;67281;48.770;11.440;2023-04-03T09:06:31;98014.88;;;15.65;42.13
78073;BME280;67281;48.770;11.440;2023-04-03T09:09:30;98014.63;;;15.68;42.13
78073;BME280;67281;48.770;11.440;2023-04-03T09:17:41;98020.63;;;15.70;42.04
78073;BME280;67281;48.770;11.440;2023-04-03T09:20:24;98024.00;;;15.72;42.57
78073;BME280;67281;48.770;11.440;2023-04-03T09:22:54;98026.53;;;15.74;42.19
78073;BME280;67281;48.770;11.440;2023-04-03T09:25:25;98020.28;;;15.75;42.43
78073;BME280;67281;48.770;11.440;2023-04-03T09:27:56;98025.56;;;15.75;41.90
78073;BME280;67281;48.770;11.440;2023-04-03T09:30:25;98022.78;;;15.76;42.32
78073;BME280;67281;48.770;11.440;2023-04-03T09:32:54;98027.25;;;15.76;42.08
78073;BME280;67281;48.770;11.440;2023-04-03T09:35:34;98023.63;;;15.77;42.07
78073;BME280;67281;48.770;11.440;2023-04-03T09:40:46;98026.41;;;15.75;42.19
78073;BME280;67281;48.770;11.440;2023-04-03T09:45:45;98018.47;;;15.75;41.84
78073;BME280;67281;48.770;11.440;2023-04-03T09:50:55;98018.47;;;15.75;42.60
78073;BME280;67281;48.770;11.440;2023-04-03T09:53:36;98027.84;;;15.80;42.13
78073;BME280;67281;48.770;11.440;2023-04-03T09:58:52;98027.34;;;15.86;42.14
78073;BME280;67281;48.770;11.440;2023-04-03T10:01:38;98025.44;;;15.88;41.75
78073;BME280;67281;48.770;11.440;2023-04-03T10:04:16;98019.19;;;15.89;42.10
78073;BME280;67281;48.770;11.440;2023-04-03T10:06:49;98028.06;;;15.88;42.07
78073;BME280;67281;48.770;11.440;2023-04-03T10:09:30;98018.34;;;15.88;41.88
78073;BME280;67281;48.770;11.440;2023-04-03T10:12:04;98018.59;;;15.85;42.42
78073;BME280;67281;48.770;11.440;2023-04-03T10:14:34;98014.16;;;15.86;41.94
78073;BME280;67281;48.770;11.440;2023-04-03T10:20:03;98003.22;;;15.90;41.88
78073;BME280;67281;48.770;11.440;2023-04-03T10:25:21;98002.97;;;15.93;42.46
78073;BME280;67281;48.770;11.440;2023-04-03T10:28:09;98005.59;;;16.04;41.98
78073;BME280;67281;48.770;11.440;2023-04-03T10:31:04;97992.00;;;16.09;42.03
78073;BME280;67281;48.770;11.440;2023-04-03T10:33:46;98002.59;;;16.09;42.11
78073;BME280;67281;48.770;11.440;2023-04-03T10:39:15;97997.78;;;16.14;41.62
78073;BME280;67281;48.770;11.440;2023-04-03T10:45:03;97998.00;;;16.22;41.87
78073;BME280;67281;48.770;11.440;2023-04-03T10:47:46;97999.69;;;16.23;41.87
78073;BME280;67281;48.770;11.440;2023-04-03T10:53:31;97999.44;;;16.26;41.33
78073;BME280;67281;48.770;11.440;2023-04-03T10:58:56;97990.53;;;16.27;42.07
78073;BME280;67281;48.770;11.440;2023-04-03T11:01:31;97999.91;;;16.31;41.68
78073;BME280;67281;48.770;11.440;2023-04-03T11:04:01;97997.25;;;16.31;41.74
78073;BME280;67281;48.770;11.440;2023-04-03T11:06:37;98002.25;;;16.34;41.33
78073;BME280;67281;48.770;11.440;2023-04-03T11:11:43;97986.84;;;16.39;41.51
78073;BME280;67281;48.770;11.440;2023-04-03T11:14:33;97987.56;;;16.41;41.25
78073;BME280;67281;48.770;11.440;2023-04-03T11:17:11;97975.31;;;16.40;40.98
78073;BME280;67281;48.770;11.440;2023-04-03T11:20:04;97980.34;;;16.43;41.70
78073;BME280;67281;48.770;11.440;2023-04-03T11:22:37;97981.78;;;16.48;41.02
78073;BME280;67281;48.770;11.440;2023-04-03T11:27:49;97963.59;;;16.54;41.10
78073;BME280;67281;48.770;11.440;2023-04-03T11:30:23;97969.47;;;16.69;41.17
78073;BME280;67281;48.770;11.440;2023-04-03T11:32:57;97981.72;;;16.70;40.44
78073;BME280;67281;48.770;11.440;2023-04-03T11:35:29;97966.31;;;16.64;40.22
78073;BME280;67281;48.770;11.440;2023-04-03T11:38:00;97966.38;;;16.53;40.82
78073;BME280;67281;48.770;11.440;2023-04-03T11:40:33;97965.47;;;16.63;40.75
78073;BME280;67281;48.770;11.440;2023-04-03T11:45:56;97956.13;;;16.59;41.21
78073;BME280;67281;48.770;11.440;2023-04-03T11:53:47;97955.41;;;16.57;40.66
78073;BME280;67281;48.770;11.440;2023-04-03T11:59:22;97955.41;;;16.89;40.01
78073;BME280;67281;48.770;11.440;2023-04-03T12:04:23;97953.84;;;16.87;40.05
78073;BME280;67281;48.770;11.440;2023-04-03T12:07:20;97956.69;;;16.74;40.72
78073;BME280;67281;48.770;11.440;2023-04-03T12:15:17;97953.97;;;16.64;40.77
78073;BME280;67281;48.770;11.440;2023-04-03T12:17:45;97946.88;;;16.65;41.04
78073;BME280;67281;48.770;11.440;2023-04-03T12:23:32;97948.03;;;16.72;41.14
78073;BME280;67281;48.770;11.440;2023-04-03T12:28:46;97946.28;;;16.82;40.92
78073;BME280;67281;48.770;11.440;2023-04-03T12:31:15;97941.31;;;16.89;40.58
78073;BME280;67281;48.770;11.440;2023-04-03T12:34:16;97943.78;;;17.01;40.94
78073;BME280;67281;48.770;11.440;2023-04-03T12:36:50;97944.16;;;16.97;40.82
78073;BME280;67281;48.770;11.440;2023-04-03T12:39:36;97934.66;;;16.94;40.52
78073;BME280;67281;48.770;11.440;2023-04-03T12:42:18;97933.75;;;17.05;40.03
78073;BME280;67281;48.770;11.440;2023-04-03T12:45:02;97939.31;;;17.02;40.96
78073;BME280;67281;48.770;11.440;2023-04-03T12:47:36;97930.22;;;16.95;40.53
78073;BME280;67281;48.770;11.440;2023-04-03T12:50:17;97927.63;;;17.04;40.45
78073;BME280;67281;48.770;11.440;2023-04-03T12:53:33;97927.13;;;17.20;40.63
78073;BME280;67281;48.770;11.440;2023-04-03T12:55:39;97927.88;;;17.32;39.72
78073;BME280;67281;48.770;11.440;2023-04-03T12:58:27;97929.03;;;17.39;40.12
78073;BME280;67281;48.770;11.440;2023-04-03T13:01:00;97924.22;;;17.54;39.84
78073;BME280;67281;48.770;11.440;2023-04-03T13:03:28;97925.09;;;17.64;39.25
78073;BME280;67281;48.770;11.440;2023-04-03T13:05:59;97921.69;;;17.52;39.86
78073;BME280;67281;48.770;11.440;2023-04-03T13:08:27;97921.78;;;17.41;39.83
78073;BME280;67281;48.770;11.440;2023-04-03T13:10:59;97925.22;;;17.32;39.58
78073;BME280;67281;48.770;11.440;2023-04-03T13:13:30;97925.66;;;17.37;39.33
78073;BME280;67281;48.770;11.440;2023-04-03T13:15:57;97929.72;;;17.41;39.63
78073;BME280;67281;48.770;11.440;2023-04-03T13:18:31;97928.38;;;17.47;39.40
78073;BME280;67281;48.770;11.440;2023-04-03T13:21:10;97930.00;;;17.38;39.74
78073;BME280;67281;48.770;11.440;2023-04-03T13:23:43;97925.44;;;17.50;39.63
78073;BME280;67281;48.770;11.440;2023-04-03T13:26:12;97921.59;;;17.63;39.54
78073;BME280;67281;48.770;11.440;2023-04-03T13:28:39;97919.31;;;17.80;38.95
78073;BME280;67281;48.770;11.440;2023-04-03T13:36:26;97919.97;;;17.41;39.72
78073;BME280;67281;48.770;11.440;2023-04-03T13:39:00;97925.66;;;17.37;40.13
78073;BME280;67281;48.770;11.440;2023-04-03T13:41:36;97921.09;;;17.69;38.89
78073;BME280;67281;48.770;11.440;2023-04-03T13:46:56;97924.31;;;17.92;39.28
78073;BME280;67281;48.770;11.440;2023-04-03T13:51:55;97921.84;;;18.10;38.82
78073;BME280;67281;48.770;11.440;2023-04-03T13:54:37;97904.53;;;18.16;38.51
78073;BME280;67281;48.770;11.440;2023-04-03T13:57:15;97923.66;;;18.19;38.69
78073;BME280;67281;48.770;11.440;2023-04-03T13:59:42;97915.00;;;18.17;38.29
78073;BME280;67281;48.770;11.440;2023-04-03T14:07:13;97906.78;;;18.30;38.55
78073;BME280;67281;48.770;11.440;2023-04-03T14:09:40;97915.44;;;18.32;38.23
78073;BME280;67281;48.770;11.440;2023-04-03T14:12:30;97904.97;;;18.40;38.48
78073;BME280;67281;48.770;11.440;2023-04-03T14:15:00;97897.56;;;18.44;37.78
78073;BME280;67281;48.770;11.440;2023-04-03T14:17:28;97892.25;;;18.24;38.21
78073;BME280;67281;48.770;11.440;2023-04-03T14:19:56;97906.22;;;18.36;38.49
78073;BME280;67281;48.770;11.440;2023-04-03T14:22:29;97904.25;;;18.09;38.49
78073;BME280;67281;48.770;11.440;2023-04-03T14:24:56;97910.78;;;17.95;38.89
78073;BME280;67281;48.770;11.440;2023-04-03T14:27:30;97901.97;;;17.85;39.25
78073;BME280;67281;48.770;11.440;2023-04-03T14:30:00;97896.81;;;17.84;39.69
78073;BME280;67281;48.770;11.440;2023-04-03T14:32:27;97902.00;;;17.76;39.22
78073;BME280;67281;48.770;11.440;2023-04-03T14:34:54;97901.00;;;17.67;39.70
78073;BME280;67281;48.770;11.440;2023-04-03T14:37:25;97903.09;;;17.83;39.31
78073;BME280;67281;48.770;11.440;2023-04-03T14:39:57;97897.00;;;18.11;38.95
78073;BME280;67281;48.770;11.440;2023-04-03T14:42:28;97896.72;;;18.24;38.65